sensor_id;sensor_type;location;lat;lon;timestamp;P1;durP1;ratioP1;P2;durP2;ratioP2
57824;SDS011;43912;44.188;21.094;2022-08-05T00:01:24;12.70;;;7.20;;
57824;SDS011;43912;44.188;21.094;2022-08-05T00:03:50;10.75;;;6.57;;
57824;SDS011;43912;44.188;21.094;2022-08-05T00:06:16;13.80;;;7.30;;
57824;SDS011;43912;44.188;21.094;2022-08-05T00:08:43;10.68;;;6.88;;
57824;SDS011;43912;44.188;21.094;2022-08-05T00:11:10;10.98;;;7.45;;
57824;SDS011;43912;44.188;21.094;2022-08-05T00:13:37;12.65;;;7.57;;
57824;SDS011;43912;44.188;21.094;2022-08-05T00:16:04;9.88;;;6.47;;
57824;SDS011;43912;44.188;21.094;2022-08-05T00:18:30;14.48;;;7.25;;
57824;SDS011;43912;44.188;21.094;2022-08-05T00:20:56;10.13;;;6.72;;
57824;SDS011;43912;44.188;21.094;2022-08-05T00:23:23;11.35;;;7.47;;
57824;SDS011;43912;44.188;21.094;2022-08-05T00:25:49;11.38;;;7.15;;
57824;SDS011;43912;44.188;21.094;2022-08-05T00:28:15;11.50;;;7.18;;
57824;SDS011;43912;44.188;21.094;2022-08-05T00:30:41;12.02;;;7.10;;
57824;SDS011;43912;44.188;21.094;2022-08-05T00:33:08;10.07;;;6.70;;
57824;SDS011;43912;44.188;21.094;2022-08-05T00:35:34;9.77;;;6.78;;
57824;SDS011;43912;44.188;21.094;2022-08-05T00:38:00;11.25;;;6.78;;
57824;SDS011;43912;44.188;21.094;2022-08-05T00:40:27;12.30;;;6.50;;
57824;SDS011;43912;44.188;21.094;2022-08-05T00:42:53;8.98;;;6.55;;
57824;SDS011;43912;44.188;21.094;2022-08-05T00:45:19;10.63;;;6.90;;
57824;SDS011;43912;44.188;21.094;2022-08-05T00:47:45;10.43;;;6.60;;
57824;SDS011;43912;44.188;21.094;2022-08-05T00:50:11;10.18;;;6.82;;
57824;SDS011;43912;44.188;21.094;2022-08-05T00:52:37;12.00;;;7.22;;
57824;SDS011;43912;44.188;21.094;2022-08-05T00:55:03;10.23;;;6.45;;
57824;SDS011;43912;44.188;21.094;2022-08-05T00:57:30;9.30;;;6.55;;
57824;SDS011;43912;44.188;21.094;2022-08-05T00:59:56;12.88;;;7.47;;
57824;SDS011;43912;44.188;21.094;2022-08-05T01:02:22;10.43;;;7.82;;
57824;SDS011;43912;44.188;21.094;2022-08-05T01:04:48;11.00;;;6.97;;
57824;SDS011;43912;44.188;21.094;2022-08-05T01:07:14;10.25;;;7.65;;
57824;SDS011;43912;44.188;21.094;2022-08-05T01:09:40;10.52;;;6.88;;
57824;SDS011;43912;44.188;21.094;2022-08-05T01:12:10;10.02;;;7.50;;
57824;SDS011;43912;44.188;21.094;2022-08-05T01:14:44;12.40;;;7.40;;
57824;SDS011;43912;44.188;21.094;2022-08-05T01:19:47;8.73;;;7.05;;
57824;SDS011;43912;44.188;21.094;2022-08-05T01:30:23;11.15;;;7.85;;
57824;SDS011;43912;44.188;21.094;2022-08-05T01:32:49;10.93;;;7.60;;
57824;SDS011;43912;44.188;21.094;2022-08-05T01:35:17;12.00;;;8.02;;
57824;SDS011;43912;44.188;21.094;2022-08-05T01:37:44;10.88;;;8.52;;
57824;SDS011;43912;44.188;21.094;2022-08-05T01:40:11;10.73;;;8.20;;
57824;SDS011;43912;44.188;21.094;2022-08-05T01:42:39;11.23;;;8.10;;
57824;SDS011;43912;44.188;21.094;2022-08-05T01:45:06;11.65;;;8.25;;
57824;SDS011;43912;44.188;21.094;2022-08-05T01:47:33;10.05;;;7.70;;
57824;SDS011;43912;44.188;21.094;2022-08-05T01:50:00;13.90;;;8.80;;
57824;SDS011;43912;44.188;21.094;2022-08-05T01:52:27;10.25;;;7.38;;
57824;SDS011;43912;44.188;21.094;2022-08-05T01:54:58;10.57;;;7.50;;
57824;SDS011;43912;44.188;21.094;2022-08-05T01:57:32;9.90;;;7.45;;
57824;SDS011;43912;44.188;21.094;2022-08-05T02:00:00;12.85;;;8.40;;
57824;SDS011;43912;44.188;21.094;2022-08-05T02:02:28;10.60;;;7.88;;
57824;SDS011;43912;44.188;21.094;2022-08-05T02:04:57;11.45;;;7.97;;
57824;SDS011;43912;44.188;21.094;2022-08-05T02:07:25;11.50;;;8.05;;
57824;SDS011;43912;44.188;21.094;2022-08-05T02:09:51;13.88;;;8.55;;
57824;SDS011;43912;44.188;21.094;2022-08-05T02:12:23;13.00;;;7.43;;
57824;SDS011;43912;44.188;21.094;2022-08-05T02:14:59;10.40;;;8.00;;
57824;SDS011;43912;44.188;21.094;2022-08-05T02:17:30;11.40;;;8.18;;
57824;SDS011;43912;44.188;21.094;2022-08-05T02:19:59;12.18;;;8.48;;
57824;SDS011;43912;44.188;21.094;2022-08-05T02:22:29;11.27;;;7.75;;
57824;SDS011;43912;44.188;21.094;2022-08-05T02:25:03;11.48;;;8.00;;
57824;SDS011;43912;44.188;21.094;2022-08-05T02:27:31;13.57;;;8.60;;
57824;SDS011;43912;44.188;21.094;2022-08-05T02:29:59;10.98;;;9.02;;
57824;SDS011;43912;44.188;21.094;2022-08-05T02:32:27;10.20;;;8.15;;
57824;SDS011;43912;44.188;21.094;2022-08-05T02:34:53;11.43;;;8.68;;
57824;SDS011;43912;44.188;21.094;2022-08-05T02:37:20;11.32;;;8.98;;
57824;SDS011;43912;44.188;21.094;2022-08-05T02:39:46;15.07;;;9.13;;
57824;SDS011;43912;44.188;21.094;2022-08-05T02:42:13;13.18;;;8.05;;
57824;SDS011;43912;44.188;21.094;2022-08-05T02:44:40;12.00;;;8.23;;
57824;SDS011;43912;44.188;21.094;2022-08-05T02:47:06;11.65;;;8.32;;
57824;SDS011;43912;44.188;21.094;2022-08-05T02:49:34;11.70;;;9.23;;
57824;SDS011;43912;44.188;21.094;2022-08-05T02:52:01;11.45;;;8.95;;
57824;SDS011;43912;44.188;21.094;2022-08-05T02:54:27;11.57;;;9.15;;
57824;SDS011;43912;44.188;21.094;2022-08-05T02:56:54;11.65;;;9.13;;
57824;SDS011;43912;44.188;21.094;2022-08-05T02:59:20;15.30;;;9.52;;
57824;SDS011;43912;44.188;21.094;2022-08-05T03:01:48;11.20;;;9.45;;
57824;SDS011;43912;44.188;21.094;2022-08-05T03:04:16;13.32;;;9.75;;
57824;SDS011;43912;44.188;21.094;2022-08-05T03:06:43;15.13;;;9.10;;
57824;SDS011;43912;44.188;21.094;2022-08-05T03:09:13;19.52;;;10.77;;
57824;SDS011;43912;44.188;21.094;2022-08-05T03:11:42;13.52;;;9.80;;
57824;SDS011;43912;44.188;21.094;2022-08-05T03:14:08;15.25;;;8.50;;
57824;SDS011;43912;44.188;21.094;2022-08-05T03:16:34;13.38;;;8.82;;
57824;SDS011;43912;44.188;21.094;2022-08-05T03:19:01;13.55;;;8.55;;
57824;SDS011;43912;44.188;21.094;2022-08-05T03:21:27;16.58;;;9.18;;
57824;SDS011;43912;44.188;21.094;2022-08-05T03:23:53;15.88;;;8.43;;
57824;SDS011;43912;44.188;21.094;2022-08-05T03:26:19;14.60;;;8.35;;
57824;SDS011;43912;44.188;21.094;2022-08-05T03:28:45;12.73;;;7.82;;
57824;SDS011;43912;44.188;21.094;2022-08-05T03:31:11;9.48;;;7.60;;
57824;SDS011;43912;44.188;21.094;2022-08-05T03:33:38;10.40;;;7.35;;
57824;SDS011;43912;44.188;21.094;2022-08-05T03:36:04;10.80;;;7.35;;
57824;SDS011;43912;44.188;21.094;2022-08-05T03:38:30;9.57;;;7.45;;
57824;SDS011;43912;44.188;21.094;2022-08-05T03:40:57;9.88;;;7.18;;
57824;SDS011;43912;44.188;21.094;2022-08-05T03:43:23;10.77;;;7.28;;
57824;SDS011;43912;44.188;21.094;2022-08-05T03:45:50;11.73;;;7.63;;
57824;SDS011;43912;44.188;21.094;2022-08-05T03:48:16;12.30;;;7.80;;
57824;SDS011;43912;44.188;21.094;2022-08-05T03:53:26;13.10;;;7.53;;
57824;SDS011;43912;44.188;21.094;2022-08-05T03:56:02;17.58;;;7.60;;
57824;SDS011;43912;44.188;21.094;2022-08-05T03:58:30;15.23;;;8.02;;
57824;SDS011;43912;44.188;21.094;2022-08-05T04:00:58;14.23;;;8.75;;
57824;SDS011;43912;44.188;21.094;2022-08-05T04:03:24;11.07;;;8.07;;
57824;SDS011;43912;44.188;21.094;2022-08-05T04:05:52;13.75;;;10.27;;
57824;SDS011;43912;44.188;21.094;2022-08-05T04:08:18;12.50;;;8.25;;
57824;SDS011;43912;44.188;21.094;2022-08-05T04:10:44;12.02;;;9.48;;
57824;SDS011;43912;44.188;21.094;2022-08-05T04:13:11;15.00;;;9.75;;
57824;SDS011;43912;44.188;21.094;2022-08-05T04:15:37;14.13;;;9.45;;
57824;SDS011;43912;44.188;21.094;2022-08-05T04:18:04;12.57;;;8.40;;
57824;SDS011;43912;44.188;21.094;2022-08-05T04:20:30;12.60;;;8.15;;
57824;SDS011;43912;44.188;21.094;2022-08-05T04:22:56;13.45;;;8.70;;
57824;SDS011;43912;44.188;21.094;2022-08-05T04:25:22;25.77;;;19.63;;
57824;SDS011;43912;44.188;21.094;2022-08-05T04:27:48;16.60;;;13.52;;
57824;SDS011;43912;44.188;21.094;2022-08-05T04:30:14;31.10;;;26.60;;
57824;SDS011;43912;44.188;21.094;2022-08-05T04:32:41;21.88;;;19.58;;
57824;SDS011;43912;44.188;21.094;2022-08-05T04:35:07;13.88;;;9.63;;
57824;SDS011;43912;44.188;21.094;2022-08-05T04:37:33;15.90;;;10.20;;
57824;SDS011;43912;44.188;21.094;2022-08-05T04:39:59;19.95;;;14.82;;
57824;SDS011;43912;44.188;21.094;2022-08-05T04:42:25;14.85;;;10.93;;
57824;SDS011;43912;44.188;21.094;2022-08-05T04:44:51;17.60;;;12.85;;
57824;SDS011;43912;44.188;21.094;2022-08-05T04:47:17;21.98;;;19.95;;
57824;SDS011;43912;44.188;21.094;2022-08-05T04:49:43;35.40;;;31.88;;
57824;SDS011;43912;44.188;21.094;2022-08-05T04:52:10;23.27;;;21.00;;
57824;SDS011;43912;44.188;21.094;2022-08-05T04:54:36;17.83;;;14.00;;
57824;SDS011;43912;44.188;21.094;2022-08-05T04:57:02;20.80;;;18.30;;
57824;SDS011;43912;44.188;21.094;2022-08-05T04:59:28;16.25;;;13.02;;
57824;SDS011;43912;44.188;21.094;2022-08-05T05:01:54;15.13;;;11.85;;
57824;SDS011;43912;44.188;21.094;2022-08-05T05:04:22;10.57;;;9.25;;
57824;SDS011;43912;44.188;21.094;2022-08-05T05:06:48;12.85;;;11.27;;
57824;SDS011;43912;44.188;21.094;2022-08-05T05:09:14;13.63;;;9.85;;
57824;SDS011;43912;44.188;21.094;2022-08-05T05:11:40;12.55;;;8.27;;
57824;SDS011;43912;44.188;21.094;2022-08-05T05:14:06;11.23;;;8.15;;
57824;SDS011;43912;44.188;21.094;2022-08-05T05:16:33;10.20;;;8.25;;
57824;SDS011;43912;44.188;21.094;2022-08-05T05:18:59;12.05;;;9.50;;
57824;SDS011;43912;44.188;21.094;2022-08-05T05:21:25;12.98;;;10.50;;
57824;SDS011;43912;44.188;21.094;2022-08-05T05:23:51;14.73;;;9.95;;
57824;SDS011;43912;44.188;21.094;2022-08-05T05:26:17;15.65;;;11.93;;
57824;SDS011;43912;44.188;21.094;2022-08-05T05:28:43;18.10;;;12.68;;
57824;SDS011;43912;44.188;21.094;2022-08-05T05:31:09;16.17;;;12.95;;
57824;SDS011;43912;44.188;21.094;2022-08-05T05:33:35;14.38;;;9.40;;
57824;SDS011;43912;44.188;21.094;2022-08-05T05:36:01;20.38;;;14.13;;
57824;SDS011;43912;44.188;21.094;2022-08-05T05:38:27;12.30;;;9.82;;
57824;SDS011;43912;44.188;21.094;2022-08-05T05:40:55;17.20;;;11.73;;
57824;SDS011;43912;44.188;21.094;2022-08-05T05:43:21;20.20;;;12.68;;
57824;SDS011;43912;44.188;21.094;2022-08-05T05:45:47;18.25;;;13.75;;
57824;SDS011;43912;44.188;21.094;2022-08-05T05:48:13;14.75;;;13.15;;
57824;SDS011;43912;44.188;21.094;2022-08-05T05:50:39;15.20;;;13.60;;
57824;SDS011;43912;44.188;21.094;2022-08-05T05:53:06;18.85;;;14.05;;
57824;SDS011;43912;44.188;21.094;2022-08-05T05:55:33;15.85;;;13.80;;
57824;SDS011;43912;44.188;21.094;2022-08-05T05:57:59;25.00;;;16.13;;
57824;SDS011;43912;44.188;21.094;2022-08-05T06:00:25;18.52;;;15.60;;
57824;SDS011;43912;44.188;21.094;2022-08-05T06:02:51;16.25;;;14.65;;
57824;SDS011;43912;44.188;21.094;2022-08-05T06:05:18;18.35;;;16.48;;
57824;SDS011;43912;44.188;21.094;2022-08-05T06:07:45;19.17;;;15.90;;
57824;SDS011;43912;44.188;21.094;2022-08-05T06:10:11;16.20;;;14.38;;
57824;SDS011;43912;44.188;21.094;2022-08-05T06:12:38;18.02;;;13.52;;
57824;SDS011;43912;44.188;21.094;2022-08-05T06:15:04;20.98;;;16.65;;
57824;SDS011;43912;44.188;21.094;2022-08-05T06:17:31;19.00;;;16.00;;
57824;SDS011;43912;44.188;21.094;2022-08-05T06:19:57;24.05;;;21.75;;
57824;SDS011;43912;44.188;21.094;2022-08-05T06:22:24;23.90;;;21.23;;
57824;SDS011;43912;44.188;21.094;2022-08-05T06:24:51;22.48;;;16.73;;
57824;SDS011;43912;44.188;21.094;2022-08-05T06:27:17;19.67;;;15.40;;
57824;SDS011;43912;44.188;21.094;2022-08-05T06:29:43;18.30;;;14.68;;
57824;SDS011;43912;44.188;21.094;2022-08-05T06:32:10;18.88;;;11.45;;
57824;SDS011;43912;44.188;21.094;2022-08-05T06:34:36;26.10;;;18.40;;
57824;SDS011;43912;44.188;21.094;2022-08-05T06:37:02;18.35;;;16.55;;
57824;SDS011;43912;44.188;21.094;2022-08-05T06:39:28;18.00;;;11.68;;
57824;SDS011;43912;44.188;21.094;2022-08-05T06:41:55;16.15;;;12.50;;
57824;SDS011;43912;44.188;21.094;2022-08-05T06:44:21;15.32;;;10.00;;
57824;SDS011;43912;44.188;21.094;2022-08-05T06:46:47;15.95;;;12.85;;
57824;SDS011;43912;44.188;21.094;2022-08-05T06:49:13;12.23;;;10.20;;
57824;SDS011;43912;44.188;21.094;2022-08-05T06:51:39;18.17;;;15.73;;
57824;SDS011;43912;44.188;21.094;2022-08-05T06:54:05;14.20;;;11.77;;
57824;SDS011;43912;44.188;21.094;2022-08-05T06:56:32;16.08;;;12.60;;
57824;SDS011;43912;44.188;21.094;2022-08-05T06:58:58;18.42;;;10.15;;
57824;SDS011;43912;44.188;21.094;2022-08-05T07:01:25;13.55;;;9.70;;
57824;SDS011;43912;44.188;21.094;2022-08-05T07:03:51;14.13;;;6.50;;
57824;SDS011;43912;44.188;21.094;2022-08-05T07:06:17;9.50;;;5.95;;
57824;SDS011;43912;44.188;21.094;2022-08-05T07:08:43;9.90;;;6.68;;
57824;SDS011;43912;44.188;21.094;2022-08-05T07:11:09;11.20;;;6.95;;
57824;SDS011;43912;44.188;21.094;2022-08-05T07:13:36;11.30;;;7.35;;
57824;SDS011;43912;44.188;21.094;2022-08-05T07:16:21;11.13;;;7.10;;
57824;SDS011;43912;44.188;21.094;2022-08-05T07:19:05;10.02;;;6.05;;
57824;SDS011;43912;44.188;21.094;2022-08-05T07:21:31;10.82;;;6.13;;
57824;SDS011;43912;44.188;21.094;2022-08-05T07:23:57;12.65;;;5.88;;
57824;SDS011;43912;44.188;21.094;2022-08-05T07:26:23;8.88;;;5.85;;
57824;SDS011;43912;44.188;21.094;2022-08-05T07:28:49;13.35;;;6.63;;
57824;SDS011;43912;44.188;21.094;2022-08-05T07:31:16;10.57;;;5.97;;
57824;SDS011;43912;44.188;21.094;2022-08-05T07:33:42;11.43;;;6.50;;
57824;SDS011;43912;44.188;21.094;2022-08-05T07:36:08;10.93;;;6.80;;
57824;SDS011;43912;44.188;21.094;2022-08-05T07:38:35;12.43;;;6.45;;
57824;SDS011;43912;44.188;21.094;2022-08-05T07:41:04;9.73;;;5.85;;
57824;SDS011;43912;44.188;21.094;2022-08-05T07:43:31;13.00;;;6.68;;
57824;SDS011;43912;44.188;21.094;2022-08-05T07:45:57;13.65;;;6.28;;
57824;SDS011;43912;44.188;21.094;2022-08-05T07:48:23;12.52;;;6.93;;
57824;SDS011;43912;44.188;21.094;2022-08-05T07:50:49;13.30;;;7.00;;
57824;SDS011;43912;44.188;21.094;2022-08-05T07:53:15;13.38;;;6.47;;
57824;SDS011;43912;44.188;21.094;2022-08-05T07:55:41;15.13;;;6.72;;
57824;SDS011;43912;44.188;21.094;2022-08-05T07:58:08;10.98;;;6.28;;
57824;SDS011;43912;44.188;21.094;2022-08-05T08:00:34;10.23;;;5.88;;
57824;SDS011;43912;44.188;21.094;2022-08-05T08:03:00;9.32;;;6.13;;
57824;SDS011;43912;44.188;21.094;2022-08-05T08:05:26;9.45;;;6.07;;
57824;SDS011;43912;44.188;21.094;2022-08-05T08:07:52;16.33;;;6.97;;
57824;SDS011;43912;44.188;21.094;2022-08-05T08:10:22;12.93;;;7.38;;
57824;SDS011;43912;44.188;21.094;2022-08-05T08:12:48;14.27;;;8.13;;
57824;SDS011;43912;44.188;21.094;2022-08-05T08:15:14;15.52;;;7.20;;
57824;SDS011;43912;44.188;21.094;2022-08-05T08:17:40;10.65;;;6.30;;
57824;SDS011;43912;44.188;21.094;2022-08-05T08:20:07;10.50;;;6.15;;
57824;SDS011;43912;44.188;21.094;2022-08-05T08:22:33;9.38;;;5.80;;
57824;SDS011;43912;44.188;21.094;2022-08-05T08:24:59;13.10;;;6.00;;
57824;SDS011;43912;44.188;21.094;2022-08-05T08:27:25;9.40;;;5.05;;
57824;SDS011;43912;44.188;21.094;2022-08-05T08:29:51;9.93;;;5.15;;
57824;SDS011;43912;44.188;21.094;2022-08-05T08:32:18;8.27;;;5.00;;
57824;SDS011;43912;44.188;21.094;2022-08-05T08:34:44;8.48;;;5.10;;
57824;SDS011;43912;44.188;21.094;2022-08-05T08:37:10;8.60;;;4.43;;
57824;SDS011;43912;44.188;21.094;2022-08-05T08:39:36;8.13;;;4.65;;
57824;SDS011;43912;44.188;21.094;2022-08-05T08:42:02;8.38;;;5.20;;
57824;SDS011;43912;44.188;21.094;2022-08-05T08:44:29;8.20;;;4.78;;
57824;SDS011;43912;44.188;21.094;2022-08-05T08:46:55;8.00;;;4.85;;
57824;SDS011;43912;44.188;21.094;2022-08-05T08:49:22;8.60;;;4.28;;
57824;SDS011;43912;44.188;21.094;2022-08-05T08:51:52;9.60;;;4.50;;
57824;SDS011;43912;44.188;21.094;2022-08-05T08:54:19;7.43;;;3.95;;
57824;SDS011;43912;44.188;21.094;2022-08-05T08:56:45;7.72;;;3.90;;
57824;SDS011;43912;44.188;21.094;2022-08-05T08:59:11;9.60;;;4.05;;
57824;SDS011;43912;44.188;21.094;2022-08-05T09:01:37;10.63;;;4.30;;
57824;SDS011;43912;44.188;21.094;2022-08-05T09:04:06;6.93;;;4.03;;
57824;SDS011;43912;44.188;21.094;2022-08-05T09:06:32;7.20;;;4.05;;
57824;SDS011;43912;44.188;21.094;2022-08-05T09:08:59;8.52;;;4.50;;
57824;SDS011;43912;44.188;21.094;2022-08-05T09:11:26;7.47;;;4.50;;
57824;SDS011;43912;44.188;21.094;2022-08-05T09:13:52;10.48;;;4.63;;
57824;SDS011;43912;44.188;21.094;2022-08-05T09:16:19;10.55;;;4.53;;
57824;SDS011;43912;44.188;21.094;2022-08-05T09:18:45;8.00;;;3.97;;
57824;SDS011;43912;44.188;21.094;2022-08-05T09:21:12;9.43;;;3.75;;
57824;SDS011;43912;44.188;21.094;2022-08-05T09:23:38;5.90;;;3.50;;
57824;SDS011;43912;44.188;21.094;2022-08-05T09:26:06;6.55;;;4.07;;
57824;SDS011;43912;44.188;21.094;2022-08-05T09:28:33;8.63;;;4.00;;
57824;SDS011;43912;44.188;21.094;2022-08-05T09:33:29;6.78;;;4.05;;
57824;SDS011;43912;44.188;21.094;2022-08-05T09:35:56;6.05;;;3.13;;
57824;SDS011;43912;44.188;21.094;2022-08-05T09:38:22;6.85;;;3.25;;
57824;SDS011;43912;44.188;21.094;2022-08-05T09:40:51;10.63;;;3.05;;
57824;SDS011;43912;44.188;21.094;2022-08-05T09:43:51;6.47;;;3.20;;
57824;SDS011;43912;44.188;21.094;2022-08-05T09:48:51;6.65;;;2.90;;
57824;SDS011;43912;44.188;21.094;2022-08-05T09:51:29;7.70;;;3.13;;
57824;SDS011;43912;44.188;21.094;2022-08-05T09:53:56;7.75;;;2.95;;
57824;SDS011;43912;44.188;21.094;2022-08-05T09:56:26;7.10;;;3.03;;
57824;SDS011;43912;44.188;21.094;2022-08-05T09:59:00;6.22;;;2.60;;
57824;SDS011;43912;44.188;21.094;2022-08-05T10:01:26;6.28;;;3.05;;
57824;SDS011;43912;44.188;21.094;2022-08-05T10:03:54;6.05;;;2.80;;
57824;SDS011;43912;44.188;21.094;2022-08-05T10:06:22;5.72;;;2.60;;
57824;SDS011;43912;44.188;21.094;2022-08-05T10:08:48;6.18;;;2.53;;
57824;SDS011;43912;44.188;21.094;2022-08-05T10:11:15;6.68;;;2.45;;
57824;SDS011;43912;44.188;21.094;2022-08-05T10:13:42;7.45;;;3.10;;
57824;SDS011;43912;44.188;21.094;2022-08-05T10:16:30;9.80;;;3.00;;
57824;SDS011;43912;44.188;21.094;2022-08-05T10:18:58;7.22;;;2.70;;
57824;SDS011;43912;44.188;21.094;2022-08-05T10:21:24;9.15;;;2.67;;
57824;SDS011;43912;44.188;21.094;2022-08-05T10:23:51;6.90;;;2.83;;
57824;SDS011;43912;44.188;21.094;2022-08-05T10:26:20;7.97;;;2.60;;
57824;SDS011;43912;44.188;21.094;2022-08-05T10:28:47;5.57;;;2.33;;
57824;SDS011;43912;44.188;21.094;2022-08-05T10:31:15;6.68;;;2.42;;
57824;SDS011;43912;44.188;21.094;2022-08-05T10:33:41;6.38;;;2.47;;
57824;SDS011;43912;44.188;21.094;2022-08-05T10:36:08;7.22;;;2.45;;
57824;SDS011;43912;44.188;21.094;2022-08-05T10:38:35;6.72;;;3.08;;
57824;SDS011;43912;44.188;21.094;2022-08-05T10:43:48;7.13;;;2.80;;
57824;SDS011;43912;44.188;21.094;2022-08-05T10:46:16;6.85;;;2.70;;
57824;SDS011;43912;44.188;21.094;2022-08-05T10:49:03;5.53;;;2.33;;
57824;SDS011;43912;44.188;21.094;2022-08-05T10:51:29;6.55;;;2.70;;
57824;SDS011;43912;44.188;21.094;2022-08-05T10:54:06;5.63;;;2.42;;
57824;SDS011;43912;44.188;21.094;2022-08-05T10:56:42;5.95;;;2.50;;
57824;SDS011;43912;44.188;21.094;2022-08-05T10:59:09;7.00;;;2.65;;
57824;SDS011;43912;44.188;21.094;2022-08-05T11:01:39;6.47;;;2.67;;
57824;SDS011;43912;44.188;21.094;2022-08-05T11:07:02;8.73;;;3.70;;
57824;SDS011;43912;44.188;21.094;2022-08-05T11:09:26;10.38;;;3.45;;
57824;SDS011;43912;44.188;21.094;2022-08-05T11:11:53;7.88;;;2.90;;
57824;SDS011;43912;44.188;21.094;2022-08-05T11:19:37;7.68;;;3.30;;
57824;SDS011;43912;44.188;21.094;2022-08-05T11:27:49;7.20;;;2.85;;
57824;SDS011;43912;44.188;21.094;2022-08-05T11:30:15;5.82;;;2.55;;
57824;SDS011;43912;44.188;21.094;2022-08-05T11:32:41;7.35;;;2.42;;
57824;SDS011;43912;44.188;21.094;2022-08-05T11:35:07;7.55;;;2.92;;
57824;SDS011;43912;44.188;21.094;2022-08-05T11:40:19;7.28;;;2.72;;
57824;SDS011;43912;44.188;21.094;2022-08-05T11:43:05;5.75;;;2.60;;
57824;SDS011;43912;44.188;21.094;2022-08-05T11:45:32;6.82;;;2.80;;
57824;SDS011;43912;44.188;21.094;2022-08-05T11:48:10;5.53;;;2.40;;
57824;SDS011;43912;44.188;21.094;2022-08-05T11:50:37;6.45;;;3.08;;
57824;SDS011;43912;44.188;21.094;2022-08-05T11:53:04;7.25;;;2.97;;
57824;SDS011;43912;44.188;21.094;2022-08-05T11:55:30;7.85;;;2.70;;
57824;SDS011;43912;44.188;21.094;2022-08-05T11:57:56;7.03;;;2.90;;
57824;SDS011;43912;44.188;21.094;2022-08-05T12:00:25;8.52;;;3.05;;
57824;SDS011;43912;44.188;21.094;2022-08-05T12:02:52;7.07;;;2.83;;
57824;SDS011;43912;44.188;21.094;2022-08-05T12:05:27;7.70;;;2.72;;
57824;SDS011;43912;44.188;21.094;2022-08-05T12:07:56;7.15;;;2.58;;
57824;SDS011;43912;44.188;21.094;2022-08-05T12:10:24;8.70;;;3.00;;
57824;SDS011;43912;44.188;21.094;2022-08-05T12:12:51;6.88;;;3.17;;
57824;SDS011;43912;44.188;21.094;2022-08-05T12:15:20;5.65;;;2.60;;
57824;SDS011;43912;44.188;21.094;2022-08-05T12:17:46;6.05;;;2.70;;
57824;SDS011;43912;44.188;21.094;2022-08-05T12:20:12;6.18;;;2.80;;
57824;SDS011;43912;44.188;21.094;2022-08-05T12:22:39;7.65;;;3.00;;
57824;SDS011;43912;44.188;21.094;2022-08-05T12:25:05;8.63;;;3.30;;
57824;SDS011;43912;44.188;21.094;2022-08-05T12:27:32;10.35;;;2.95;;
57824;SDS011;43912;44.188;21.094;2022-08-05T12:32:25;6.28;;;2.95;;
57824;SDS011;43912;44.188;21.094;2022-08-05T12:34:51;8.05;;;3.25;;
57824;SDS011;43912;44.188;21.094;2022-08-05T12:37:17;8.65;;;3.50;;
57824;SDS011;43912;44.188;21.094;2022-08-05T12:39:43;7.55;;;3.25;;
57824;SDS011;43912;44.188;21.094;2022-08-05T12:42:10;6.97;;;2.90;;
57824;SDS011;43912;44.188;21.094;2022-08-05T12:44:37;8.07;;;2.80;;
57824;SDS011;43912;44.188;21.094;2022-08-05T12:47:03;7.15;;;2.90;;
57824;SDS011;43912;44.188;21.094;2022-08-05T12:49:39;6.50;;;3.00;;
57824;SDS011;43912;44.188;21.094;2022-08-05T12:52:10;8.95;;;2.97;;
57824;SDS011;43912;44.188;21.094;2022-08-05T12:54:37;7.15;;;2.97;;
57824;SDS011;43912;44.188;21.094;2022-08-05T12:57:05;7.03;;;3.00;;
57824;SDS011;43912;44.188;21.094;2022-08-05T12:59:53;7.03;;;3.00;;
57824;SDS011;43912;44.188;21.094;2022-08-05T13:02:19;7.00;;;3.05;;
57824;SDS011;43912;44.188;21.094;2022-08-05T13:04:45;7.35;;;3.05;;
57824;SDS011;43912;44.188;21.094;2022-08-05T13:07:14;7.40;;;2.90;;
57824;SDS011;43912;44.188;21.094;2022-08-05T13:09:50;7.30;;;2.90;;
57824;SDS011;43912;44.188;21.094;2022-08-05T13:12:17;8.70;;;2.90;;
57824;SDS011;43912;44.188;21.094;2022-08-05T13:19:42;5.90;;;2.80;;
57824;SDS011;43912;44.188;21.094;2022-08-05T13:22:22;7.75;;;2.88;;
57824;SDS011;43912;44.188;21.094;2022-08-05T13:24:49;7.68;;;2.83;;
57824;SDS011;43912;44.188;21.094;2022-08-05T13:27:31;7.05;;;2.95;;
57824;SDS011;43912;44.188;21.094;2022-08-05T13:29:58;6.47;;;2.65;;
57824;SDS011;43912;44.188;21.094;2022-08-05T13:32:25;8.32;;;2.80;;
57824;SDS011;43912;44.188;21.094;2022-08-05T13:34:51;7.43;;;2.67;;
57824;SDS011;43912;44.188;21.094;2022-08-05T13:37:18;9.20;;;2.90;;
57824;SDS011;43912;44.188;21.094;2022-08-05T13:39:45;10.40;;;3.10;;
57824;SDS011;43912;44.188;21.094;2022-08-05T13:42:11;8.23;;;2.95;;
57824;SDS011;43912;44.188;21.094;2022-08-05T13:44:37;8.15;;;3.05;;
57824;SDS011;43912;44.188;21.094;2022-08-05T13:47:03;9.50;;;3.13;;
57824;SDS011;43912;44.188;21.094;2022-08-05T13:49:30;7.38;;;2.95;;
57824;SDS011;43912;44.188;21.094;2022-08-05T13:51:56;8.90;;;3.20;;
57824;SDS011;43912;44.188;21.094;2022-08-05T13:54:22;7.95;;;2.88;;
57824;SDS011;43912;44.188;21.094;2022-08-05T13:56:50;6.78;;;2.72;;
57824;SDS011;43912;44.188;21.094;2022-08-05T13:59:16;6.82;;;3.00;;
57824;SDS011;43912;44.188;21.094;2022-08-05T14:01:43;9.07;;;2.92;;
57824;SDS011;43912;44.188;21.094;2022-08-05T14:04:09;7.47;;;2.55;;
57824;SDS011;43912;44.188;21.094;2022-08-05T14:06:53;8.48;;;2.88;;
57824;SDS011;43912;44.188;21.094;2022-08-05T14:09:20;8.07;;;2.97;;
57824;SDS011;43912;44.188;21.094;2022-08-05T14:11:46;7.45;;;2.92;;
57824;SDS011;43912;44.188;21.094;2022-08-05T14:14:12;7.22;;;3.10;;
57824;SDS011;43912;44.188;21.094;2022-08-05T14:16:38;7.55;;;3.00;;
57824;SDS011;43912;44.188;21.094;2022-08-05T14:19:04;7.13;;;2.80;;
57824;SDS011;43912;44.188;21.094;2022-08-05T14:21:30;6.10;;;2.70;;
57824;SDS011;43912;44.188;21.094;2022-08-05T14:23:56;7.20;;;3.00;;
57824;SDS011;43912;44.188;21.094;2022-08-05T14:26:22;8.23;;;3.20;;
57824;SDS011;43912;44.188;21.094;2022-08-05T14:28:48;8.90;;;3.03;;
57824;SDS011;43912;44.188;21.094;2022-08-05T14:31:14;10.45;;;2.60;;
57824;SDS011;43912;44.188;21.094;2022-08-05T14:33:40;8.52;;;2.92;;
57824;SDS011;43912;44.188;21.094;2022-08-05T14:36:07;8.32;;;3.15;;
57824;SDS011;43912;44.188;21.094;2022-08-05T14:38:33;7.25;;;2.85;;
57824;SDS011;43912;44.188;21.094;2022-08-05T14:40:59;6.80;;;2.92;;
57824;SDS011;43912;44.188;21.094;2022-08-05T14:43:25;6.38;;;2.60;;
57824;SDS011;43912;44.188;21.094;2022-08-05T14:45:52;7.80;;;2.28;;
57824;SDS011;43912;44.188;21.094;2022-08-05T14:48:18;9.50;;;2.97;;
57824;SDS011;43912;44.188;21.094;2022-08-05T14:50:44;6.80;;;2.75;;
57824;SDS011;43912;44.188;21.094;2022-08-05T14:53:10;7.38;;;2.67;;
57824;SDS011;43912;44.188;21.094;2022-08-05T14:55:36;5.88;;;2.60;;
57824;SDS011;43912;44.188;21.094;2022-08-05T14:58:02;6.97;;;2.40;;
57824;SDS011;43912;44.188;21.094;2022-08-05T15:00:28;7.90;;;2.80;;
57824;SDS011;43912;44.188;21.094;2022-08-05T15:02:55;6.07;;;2.53;;
57824;SDS011;43912;44.188;21.094;2022-08-05T15:05:21;7.95;;;2.63;;
57824;SDS011;43912;44.188;21.094;2022-08-05T15:07:47;7.45;;;2.40;;
57824;SDS011;43912;44.188;21.094;2022-08-05T15:10:13;6.10;;;2.40;;
57824;SDS011;43912;44.188;21.094;2022-08-05T15:12:39;7.05;;;2.75;;